createdAt,value
2017-10-02T00:00:48.455Z,41.53
2017-10-02T00:03:18.244Z,45.53
2017-10-02T00:05:47.820Z,49.67
2017-10-02T00:08:17.603Z,41.42
2017-10-02T00:10:47.368Z,41.03
2017-10-02T00:13:17.126Z,45.42
2017-10-02T00:15:46.894Z,35.30
2017-10-02T00:18:16.684Z,34.30
2017-10-02T00:20:46.468Z,36.97
2017-10-02T00:23:16.218Z,42.97
2017-10-02T00:25:46.024Z,43.47
2017-10-02T00:28:15.784Z,40.88
2017-10-02T00:30:45.554Z,42.25
2017-10-02T00:33:15.154Z,37.42
2017-10-02T00:35:44.929Z,42.85
2017-10-02T00:38:14.730Z,39.60
2017-10-02T00:40:44.511Z,42.03
2017-10-02T00:43:14.282Z,40.35
2017-10-02T00:45:43.893Z,45.55
2017-10-02T00:48:13.738Z,39.97
2017-10-02T00:50:43.153Z,43.05
2017-10-02T00:53:12.997Z,35.35
2017-10-02T00:55:42.779Z,37.90
2017-10-02T00:58:12.549Z,40.35
2017-10-02T01:00:42.338Z,32.75
2017-10-02T01:03:11.942Z,33.53
2017-10-02T01:05:41.694Z,34.55
2017-10-02T01:08:11.291Z,36.42
2017-10-02T01:10:41.056Z,35.67
2017-10-02T01:13:10.821Z,33.17
2017-10-02T01:15:40.400Z,29.52
2017-10-02T01:18:10.132Z,32.20
2017-10-02T01:20:39.899Z,29.02
2017-10-02T01:23:09.653Z,31.80
2017-10-02T01:25:39.436Z,32.85
2017-10-02T01:28:09.205Z,32.65
2017-10-02T01:30:38.976Z,30.25
2017-10-02T01:33:08.771Z,27.83
2017-10-02T01:35:38.532Z,31.58
2017-10-02T01:38:08.307Z,31.02
2017-10-02T01:40:38.082Z,28.35
2017-10-02T01:43:07.834Z,33.15
2017-10-02T01:45:37.599Z,28.80
2017-10-02T01:48:07.357Z,27.92
2017-10-02T01:50:37.106Z,27.05
2017-10-02T01:53:06.873Z,28.17
2017-10-02T01:55:36.654Z,30.73
2017-10-02T01:58:06.402Z,26.50
2017-10-02T02:00:36.152Z,26.83
2017-10-02T02:03:05.816Z,31.37
2017-10-02T02:05:35.811Z,28.67
2017-10-02T02:08:05.559Z,30.20
2017-10-02T02:10:35.321Z,28.05
2017-10-02T02:13:05.077Z,28.20
2017-10-02T02:15:34.861Z,28.42
2017-10-02T02:18:04.636Z,29.05
2017-10-02T02:20:34.415Z,29.80
2017-10-02T02:23:04.165Z,32.00
2017-10-02T02:25:33.941Z,31.87
2017-10-02T02:28:03.716Z,37.42
2017-10-02T02:30:33.486Z,37.70
2017-10-02T02:33:03.254Z,34.25
2017-10-02T02:35:33.020Z,40.75
2017-10-02T02:38:02.786Z,38.25
2017-10-02T02:40:32.548Z,40.38
2017-10-02T02:43:02.312Z,45.42
2017-10-02T02:45:32.085Z,41.08
2017-10-02T02:48:01.861Z,39.83
2017-10-02T02:50:31.620Z,33.92
2017-10-02T02:53:01.397Z,40.00
2017-10-02T02:55:31.912Z,41.55
2017-10-02T02:58:01.710Z,39.10
2017-10-02T03:00:31.514Z,48.22
2017-10-02T03:03:01.098Z,47.72
2017-10-02T03:05:30.859Z,34.35
2017-10-02T03:08:00.634Z,39.33
2017-10-02T03:10:30.400Z,42.28
2017-10-02T03:13:00.202Z,37.30
2017-10-02T03:15:29.956Z,44.75
2017-10-02T03:17:59.734Z,47.10
2017-10-02T03:20:29.222Z,40.03
2017-10-02T03:22:58.867Z,42.42
2017-10-02T03:25:28.635Z,40.42
2017-10-02T03:27:58.397Z,44.05
2017-10-02T03:30:28.145Z,39.58
2017-10-02T03:32:57.931Z,44.63
2017-10-02T03:35:27.685Z,42.95
2017-10-02T03:37:58.091Z,48.13
2017-10-02T03:40:27.859Z,42.75
2017-10-02T03:42:57.653Z,46.85
2017-10-02T03:45:27.422Z,44.22
2017-10-02T03:47:57.170Z,35.05
2017-10-02T03:50:26.949Z,43.58
2017-10-02T03:52:56.710Z,35.53
2017-10-02T03:55:26.451Z,44.92
2017-10-02T03:57:56.215Z,40.42
2017-10-02T04:00:25.960Z,35.97
2017-10-02T04:02:55.706Z,37.70
2017-10-02T04:05:25.512Z,42.60
2017-10-02T04:07:56.188Z,41.15
2017-10-02T04:10:25.769Z,37.60
2017-10-02T04:12:55.539Z,37.63
2017-10-02T04:15:25.509Z,37.75
2017-10-02T04:17:56.051Z,35.70
2017-10-02T04:20:25.826Z,41.97
2017-10-02T04:22:55.598Z,36.78
2017-10-02T04:25:25.692Z,36.33
2017-10-02T04:27:55.420Z,39.45
2017-10-02T04:30:25.193Z,49.50
2017-10-02T04:32:54.984Z,37.22
2017-10-02T04:35:24.743Z,42.28
2017-10-02T04:37:54.687Z,38.75
2017-10-02T04:40:24.506Z,36.42
2017-10-02T04:42:54.402Z,37.45
2017-10-02T04:45:24.166Z,36.55
2017-10-02T04:47:54.941Z,40.20
2017-10-02T04:50:24.694Z,35.92
2017-10-02T04:52:55.439Z,48.53
2017-10-02T04:55:25.205Z,30.75
2017-10-02T04:57:54.984Z,42.35
2017-10-02T05:00:24.740Z,30.70
2017-10-02T05:02:54.590Z,35.08
2017-10-02T05:05:24.360Z,36.80
2017-10-02T05:07:54.134Z,32.28
2017-10-02T05:10:23.922Z,30.05
2017-10-02T05:12:54.110Z,36.50
2017-10-02T05:15:23.860Z,30.40
2017-10-02T05:17:53.648Z,31.67
2017-10-02T05:20:23.432Z,33.05
2017-10-02T05:22:53.242Z,32.97
2017-10-02T05:25:23.051Z,32.42
2017-10-02T05:27:53.091Z,33.95
2017-10-02T05:30:22.792Z,31.10
2017-10-02T05:32:52.604Z,31.45
2017-10-02T05:35:22.417Z,28.60
2017-10-02T05:37:52.213Z,30.25
2017-10-02T05:40:21.765Z,27.73
2017-10-02T05:42:51.543Z,32.22
2017-10-02T05:45:21.372Z,29.37
2017-10-02T05:47:51.180Z,26.27
2017-10-02T05:50:20.927Z,25.92
2017-10-02T05:52:50.697Z,40.67
2017-10-02T05:55:20.597Z,30.95
2017-10-02T05:57:50.551Z,31.92
2017-10-02T06:00:20.348Z,36.00
2017-10-02T06:02:50.409Z,31.17
2017-10-02T06:05:20.198Z,39.25
2017-10-02T06:07:50.022Z,36.88
2017-10-02T06:10:19.812Z,38.33
2017-10-02T06:12:49.859Z,31.37
2017-10-02T06:15:19.933Z,39.70
2017-10-02T06:17:49.712Z,66.62
2017-10-02T06:20:19.469Z,80.22
2017-10-02T06:22:49.229Z,62.28
2017-10-02T06:25:19.049Z,70.43
2017-10-02T06:27:48.812Z,67.53
2017-10-02T06:30:18.565Z,82.82
2017-10-02T06:32:48.549Z,79.57
2017-10-02T06:35:18.300Z,82.40
2017-10-02T06:37:48.052Z,82.32
2017-10-02T06:40:17.839Z,82.32
2017-10-02T06:42:47.639Z,71.25
2017-10-02T06:45:17.413Z,68.05
2017-10-02T06:47:47.283Z,64.57
2017-10-02T06:50:17.108Z,66.10
2017-10-02T06:52:46.861Z,65.97
2017-10-02T06:55:16.630Z,62.78
2017-10-02T06:57:46.382Z,62.42
2017-10-02T07:00:16.188Z,61.67
2017-10-02T07:02:45.985Z,61.45
2017-10-02T07:05:15.769Z,54.83
2017-10-02T07:07:45.357Z,53.33
2017-10-02T07:10:14.834Z,57.00
2017-10-02T07:12:44.301Z,45.00
2017-10-02T07:15:13.782Z,49.03
2017-10-02T07:17:43.236Z,33.87
2017-10-02T07:20:12.747Z,36.67
2017-10-02T07:22:42.215Z,32.67
2017-10-02T07:25:11.499Z,29.63
2017-10-02T07:27:40.782Z,25.50
2017-10-02T07:30:10.257Z,25.67
2017-10-02T07:32:39.744Z,30.87
2017-10-02T07:35:09.236Z,24.47
2017-10-02T07:37:38.690Z,22.07
2017-10-02T07:40:08.235Z,21.97
2017-10-02T07:42:37.782Z,20.73
2017-10-02T07:45:07.469Z,26.47
2017-10-02T07:47:36.953Z,25.77
2017-10-02T07:50:06.421Z,26.40
2017-10-02T07:52:35.910Z,31.00
2017-10-02T07:55:05.401Z,24.90
2017-10-02T07:57:35.054Z,29.23
2017-10-02T08:00:04.279Z,24.93
2017-10-02T08:02:33.744Z,23.40
2017-10-02T08:05:03.216Z,27.00
2017-10-02T08:07:32.691Z,23.60
2017-10-02T08:10:02.197Z,18.97
2017-10-02T08:12:31.964Z,25.53
2017-10-02T08:15:01.419Z,28.83
2017-10-02T08:17:30.721Z,18.77
2017-10-02T08:20:00.195Z,19.23
2017-10-02T08:22:29.952Z,24.90
2017-10-02T08:24:59.412Z,18.83
2017-10-02T08:27:29.375Z,20.13
2017-10-02T08:29:58.860Z,21.53
2017-10-02T08:32:28.349Z,17.90
2017-10-02T08:34:57.631Z,16.97
2017-10-02T08:37:26.919Z,16.33
2017-10-02T08:39:56.374Z,15.80
2017-10-02T08:42:25.831Z,18.17
2017-10-02T08:44:55.308Z,18.17
2017-10-02T08:47:24.778Z,21.13
2017-10-02T08:49:54.282Z,17.63
2017-10-02T08:52:23.713Z,19.13
2017-10-02T08:54:53.177Z,15.90
2017-10-02T08:57:22.630Z,17.20
2017-10-02T08:59:51.954Z,21.37
2017-10-02T09:02:21.477Z,18.57
2017-10-02T09:04:50.941Z,15.73
2017-10-02T09:07:20.423Z,19.87
2017-10-02T09:09:49.919Z,18.40
2017-10-02T09:12:19.412Z,24.10
2017-10-02T09:14:48.896Z,19.63
2017-10-02T09:17:18.369Z,19.23
2017-10-02T09:19:47.834Z,19.00
2017-10-02T09:22:17.292Z,17.70
2017-10-02T09:24:46.774Z,25.10
2017-10-02T09:27:16.242Z,34.57
2017-10-02T09:29:45.701Z,31.53
2017-10-02T09:32:15.167Z,30.93
2017-10-02T09:34:44.436Z,25.20
2017-10-02T09:37:13.909Z,27.50
2017-10-02T09:39:43.380Z,34.63
2017-10-02T09:42:12.885Z,29.40
2017-10-02T09:44:42.361Z,36.70
2017-10-02T09:47:11.828Z,29.00
2017-10-02T09:49:41.301Z,28.83
2017-10-02T09:52:10.792Z,30.80
2017-10-02T09:54:40.296Z,27.70
2017-10-02T09:57:09.747Z,25.67
2017-10-02T09:59:39.210Z,25.57
2017-10-02T10:02:09.028Z,26.83
2017-10-02T10:04:38.542Z,29.40
2017-10-02T10:07:08.068Z,30.73
2017-10-02T10:09:37.539Z,28.80
2017-10-02T10:12:07.014Z,28.97
2017-10-02T10:14:36.482Z,24.70
2017-10-02T10:17:05.943Z,25.57
2017-10-02T10:19:35.451Z,23.63
2017-10-02T10:22:04.898Z,27.73
2017-10-02T10:24:34.391Z,31.50
2017-10-02T10:27:04.586Z,42.27
2017-10-02T10:29:34.126Z,23.47
2017-10-02T10:32:03.585Z,24.67
2017-10-02T10:34:32.881Z,23.37
2017-10-02T10:37:02.442Z,26.13
2017-10-02T10:39:31.924Z,21.03
2017-10-02T10:42:01.491Z,23.60
2017-10-02T10:44:30.993Z,22.90
2017-10-02T10:47:00.433Z,30.87
2017-10-02T10:49:29.910Z,19.93
2017-10-02T10:51:59.469Z,19.17
2017-10-02T10:54:28.956Z,23.77
2017-10-02T10:56:58.514Z,19.10
2017-10-02T10:59:28.020Z,29.40
2017-10-02T11:01:57.535Z,17.17
2017-10-02T11:04:27.028Z,24.13
2017-10-02T11:06:56.472Z,19.17
2017-10-02T11:09:25.987Z,19.70
2017-10-02T11:11:55.524Z,20.73
2017-10-02T11:14:24.996Z,24.60
2017-10-02T11:16:54.623Z,27.10
2017-10-02T11:19:24.068Z,18.40
2017-10-02T11:21:53.342Z,24.63
2017-10-02T11:24:22.814Z,17.27
2017-10-02T11:26:52.290Z,17.57
2017-10-02T11:29:21.770Z,24.60
2017-10-02T11:31:51.220Z,16.53
2017-10-02T11:34:20.692Z,17.70
2017-10-02T11:36:50.175Z,17.60
2017-10-02T11:39:19.661Z,16.63
2017-10-02T11:41:49.141Z,13.90
2017-10-02T11:44:18.647Z,16.00
2017-10-02T11:46:48.124Z,15.40
2017-10-02T11:49:17.631Z,15.90
2017-10-02T11:51:47.142Z,15.00
2017-10-02T11:54:16.617Z,17.67
2017-10-02T11:56:46.114Z,20.60
2017-10-02T11:59:15.627Z,19.23
2017-10-02T12:01:45.097Z,15.10
2017-10-02T12:04:14.571Z,13.60
2017-10-02T12:06:44.053Z,13.10
2017-10-02T12:09:13.336Z,15.33
2017-10-02T12:11:42.635Z,13.33
2017-10-02T12:14:12.099Z,15.50
2017-10-02T12:16:41.374Z,13.00
2017-10-02T12:19:10.867Z,12.80
2017-10-02T12:21:40.379Z,11.87
2017-10-02T12:24:09.841Z,10.80
2017-10-02T12:26:39.323Z,13.53
2017-10-02T12:29:08.806Z,11.17
2017-10-02T12:31:38.279Z,14.77
2017-10-02T12:34:07.729Z,12.87
2017-10-02T12:36:38.899Z,10.50
2017-10-02T12:39:08.364Z,12.10
2017-10-02T12:41:37.821Z,14.27
2017-10-02T12:44:07.310Z,10.70
2017-10-02T12:46:36.854Z,11.47
2017-10-02T12:49:06.335Z,13.63
2017-10-02T12:51:35.830Z,10.07
2017-10-02T12:54:05.256Z,8.17
2017-10-02T12:56:34.364Z,9.20
2017-10-02T12:59:03.890Z,10.60
2017-10-02T13:01:33.375Z,10.17
2017-10-02T13:04:02.830Z,8.30
2017-10-02T13:06:32.309Z,8.93
2017-10-02T13:09:01.618Z,8.93
2017-10-02T13:11:30.700Z,10.03
2017-10-02T13:14:00.145Z,11.13
2017-10-02T13:16:29.588Z,10.67
2017-10-02T13:18:59.095Z,9.20
2017-10-02T13:21:28.580Z,9.00
2017-10-02T13:23:58.028Z,10.07
2017-10-02T13:26:27.526Z,11.27
2017-10-02T13:28:56.996Z,10.70
2017-10-02T13:31:26.455Z,10.17
2017-10-02T13:33:55.939Z,9.43
2017-10-02T13:36:25.407Z,9.53
2017-10-02T13:38:54.887Z,9.10
2017-10-02T13:41:24.355Z,8.97
2017-10-02T13:43:53.827Z,10.77
2017-10-02T13:46:23.344Z,10.10
2017-10-02T13:48:52.795Z,10.60
2017-10-02T13:51:22.817Z,11.90
2017-10-02T13:53:52.306Z,10.13
2017-10-02T13:56:21.800Z,14.63
2017-10-02T13:58:51.257Z,11.57
2017-10-02T14:01:20.724Z,8.10
2017-10-02T14:03:50.058Z,12.77
2017-10-02T14:06:19.366Z,12.30
2017-10-02T14:08:49.140Z,13.03
2017-10-02T14:11:18.481Z,11.77
2017-10-02T14:13:47.774Z,8.80
2017-10-02T14:16:17.110Z,10.50
2017-10-02T14:18:46.586Z,12.63
2017-10-02T14:21:16.078Z,16.03
2017-10-02T14:23:45.540Z,15.40
2017-10-02T14:26:15.007Z,12.77
2017-10-02T14:28:44.483Z,12.50
2017-10-02T14:31:13.979Z,21.57
2017-10-02T14:33:43.437Z,22.83
2017-10-02T14:36:12.983Z,19.40
2017-10-02T14:38:42.430Z,24.70
2017-10-02T14:41:12.296Z,22.73
2017-10-02T14:43:41.860Z,31.67
2017-10-02T14:46:11.341Z,19.23
2017-10-02T14:48:41.132Z,20.13
2017-10-02T14:51:10.606Z,22.77
2017-10-02T14:53:40.084Z,17.67
2017-10-02T14:56:09.569Z,20.73
2017-10-02T14:58:39.020Z,19.87
2017-10-02T15:01:08.496Z,21.17
2017-10-02T15:03:38.125Z,26.00
2017-10-02T15:06:07.586Z,15.33
2017-10-02T15:08:36.870Z,18.60
2017-10-02T15:11:06.347Z,23.13
2017-10-02T15:13:35.859Z,18.80
2017-10-02T15:16:05.308Z,25.17
2017-10-02T15:18:34.800Z,28.00
2017-10-02T15:21:04.294Z,26.30
2017-10-02T15:23:33.773Z,26.27
2017-10-02T15:26:03.264Z,22.10
2017-10-02T15:28:32.723Z,18.17
2017-10-02T15:31:02.185Z,17.83
2017-10-02T15:33:31.667Z,24.37
2017-10-02T15:36:01.134Z,18.93
2017-10-02T15:38:30.613Z,17.63
2017-10-02T15:41:00.084Z,27.00
2017-10-02T15:43:29.581Z,21.77
2017-10-02T15:45:59.030Z,20.87
2017-10-02T15:48:28.505Z,21.30
2017-10-02T15:50:58.064Z,27.83
2017-10-02T15:53:27.565Z,23.60
2017-10-02T15:55:57.032Z,31.70
2017-10-02T15:58:26.503Z,22.37
2017-10-02T16:00:55.979Z,25.53
2017-10-02T16:03:25.461Z,25.47
2017-10-02T16:05:54.932Z,27.63
2017-10-02T16:08:24.408Z,18.00
2017-10-02T16:10:53.892Z,16.93
2017-10-02T16:13:23.346Z,15.50
2017-10-02T16:15:52.820Z,25.13
2017-10-02T16:18:22.279Z,16.13
2017-10-02T16:20:51.745Z,15.27
2017-10-02T16:23:28.728Z,20.47
2017-10-02T16:25:59.610Z,16.33
2017-10-02T16:28:29.113Z,16.10
2017-10-02T16:31:07.390Z,17.57
2017-10-02T16:33:38.430Z,18.83
2017-10-02T16:36:08.243Z,16.13
2017-10-02T16:38:38.037Z,18.50
2017-10-02T16:41:07.493Z,22.63
2017-10-02T16:43:37.168Z,16.93
2017-10-02T16:46:06.640Z,14.47
2017-10-02T16:48:36.263Z,17.27
2017-10-02T16:51:05.905Z,19.23
2017-10-02T16:53:35.547Z,21.20
2017-10-02T16:56:05.028Z,14.30
2017-10-02T16:58:34.639Z,20.50
2017-10-02T17:01:04.181Z,17.57
2017-10-02T17:03:33.697Z,30.03
2017-10-02T17:06:03.161Z,17.40
2017-10-02T17:08:33.349Z,19.17
2017-10-02T17:11:02.826Z,17.90
2017-10-02T17:13:32.484Z,23.13
2017-10-02T17:16:01.950Z,27.27
2017-10-02T17:18:32.117Z,19.30
2017-10-02T17:21:01.948Z,18.97
2017-10-02T17:23:31.458Z,18.13
2017-10-02T17:26:01.054Z,20.53
2017-10-02T17:28:30.660Z,19.27
2017-10-02T17:31:00.150Z,20.17
2017-10-02T17:33:29.602Z,19.00
2017-10-02T17:35:59.178Z,19.37
2017-10-02T17:38:28.700Z,18.23
2017-10-02T17:40:58.325Z,18.53
2017-10-02T17:43:27.820Z,23.60
2017-10-02T17:45:57.359Z,26.03
2017-10-02T17:48:26.837Z,20.87
2017-10-02T17:50:56.506Z,23.10
2017-10-02T17:53:25.981Z,20.00
2017-10-02T17:55:58.130Z,21.87
2017-10-02T17:58:27.990Z,26.80
2017-10-02T18:00:57.651Z,19.10
2017-10-02T18:03:27.237Z,21.23
2017-10-02T18:05:56.792Z,18.67
2017-10-02T18:08:26.305Z,21.80
2017-10-02T18:10:55.868Z,19.53
2017-10-02T18:13:25.360Z,23.50
2017-10-02T18:15:54.821Z,27.63
2017-10-02T18:18:24.414Z,20.20
2017-10-02T18:20:54.040Z,20.27
2017-10-02T18:23:23.513Z,24.80
2017-10-02T18:25:52.921Z,24.10
2017-10-02T18:28:22.476Z,24.23
2017-10-02T18:30:52.695Z,25.20
2017-10-02T18:33:22.149Z,25.53
2017-10-02T18:35:51.628Z,19.07
2017-10-02T18:38:21.086Z,25.00
2017-10-02T18:40:50.386Z,19.47
2017-10-02T18:43:19.878Z,20.73
2017-10-02T18:45:49.469Z,26.43
2017-10-02T18:48:19.011Z,18.97
2017-10-02T18:50:48.469Z,21.33
2017-10-02T18:53:17.924Z,21.83
2017-10-02T18:55:47.389Z,22.23
2017-10-02T18:58:16.886Z,24.30
2017-10-02T19:00:46.352Z,25.10
2017-10-02T19:03:15.842Z,19.70
2017-10-02T19:05:45.448Z,25.50
2017-10-02T19:08:14.912Z,21.50
2017-10-02T19:10:44.601Z,23.50
2017-10-02T19:13:15.580Z,21.23
2017-10-02T19:15:45.100Z,25.50
2017-10-02T19:18:14.586Z,19.20
2017-10-02T19:20:44.667Z,20.83
2017-10-02T19:23:14.132Z,20.63
2017-10-02T19:25:44.286Z,21.07
2017-10-02T19:28:13.908Z,22.57
2017-10-02T19:30:43.602Z,19.10
2017-10-02T19:33:14.822Z,23.37
2017-10-02T19:35:44.922Z,22.73
2017-10-02T19:38:15.353Z,22.73
2017-10-02T19:40:44.913Z,17.60
2017-10-02T19:43:14.752Z,21.93
2017-10-02T19:45:44.336Z,18.20
2017-10-02T19:48:15.154Z,24.83
2017-10-02T19:50:44.846Z,25.83
2017-10-02T19:53:15.438Z,25.10
2017-10-02T19:55:44.942Z,21.43
2017-10-02T19:58:15.582Z,21.80
2017-10-02T20:00:45.552Z,24.77
2017-10-02T20:03:15.458Z,25.27
2017-10-02T20:05:45.030Z,23.80
2017-10-02T20:08:14.491Z,21.73
2017-10-02T20:10:44.651Z,22.33
2017-10-02T20:13:14.234Z,23.00
2017-10-02T20:15:43.693Z,23.07
2017-10-02T20:18:13.774Z,30.03
2017-10-02T20:20:43.434Z,19.67
2017-10-02T20:26:12.598Z,13.03
2017-10-02T20:28:42.060Z,15.20
2017-10-02T20:31:11.747Z,13.27
2017-10-02T20:33:41.735Z,11.07
2017-10-02T20:36:12.369Z,11.63
2017-10-02T20:38:42.704Z,12.90
2017-10-02T20:41:12.562Z,13.30
2017-10-02T20:43:42.004Z,13.10
2017-10-02T20:46:11.449Z,13.33
2017-10-02T20:48:40.907Z,14.33
2017-10-02T20:51:10.419Z,12.33
2017-10-02T20:53:39.872Z,15.93
2017-10-02T20:56:09.377Z,13.07
2017-10-02T20:58:39.024Z,13.57
2017-10-02T21:01:08.526Z,14.03
2017-10-02T21:03:38.004Z,14.50
2017-10-02T21:06:07.340Z,15.30
2017-10-02T21:08:38.016Z,14.80
2017-10-02T21:11:08.168Z,17.47
2017-10-02T21:13:38.130Z,15.50
2017-10-02T21:16:08.289Z,15.10
2017-10-02T21:18:38.638Z,11.57
2017-10-02T21:21:09.002Z,14.00
2017-10-02T21:23:43.534Z,11.30
2017-10-02T21:26:14.047Z,14.50
2017-10-02T21:28:44.447Z,10.50
2017-10-02T21:31:14.654Z,14.07
2017-10-02T21:33:44.780Z,15.53
2017-10-02T21:36:15.113Z,18.10
2017-10-02T21:38:44.748Z,19.00
2017-10-02T21:41:14.223Z,14.63
2017-10-02T21:43:43.682Z,16.43
2017-10-02T21:46:13.142Z,15.73
2017-10-02T21:48:42.629Z,14.90
2017-10-02T21:51:12.368Z,12.90
2017-10-02T21:53:41.949Z,14.73
2017-10-02T21:56:11.417Z,14.80
2017-10-02T21:58:40.890Z,14.13
2017-10-02T22:01:10.359Z,11.03
2017-10-02T22:03:39.858Z,13.00
2017-10-02T22:06:09.578Z,13.67
2017-10-02T22:08:38.783Z,15.70
2017-10-02T22:11:07.961Z,18.57
2017-10-02T22:13:37.874Z,17.37
2017-10-02T22:16:07.643Z,24.55
2017-10-02T22:18:37.141Z,24.90
2017-10-02T22:21:08.688Z,21.33
2017-10-02T22:23:38.453Z,26.87
2017-10-02T22:26:07.945Z,25.07
2017-10-02T22:28:37.739Z,24.02
2017-10-02T22:31:07.490Z,22.25
2017-10-02T22:33:37.306Z,24.52
2017-10-02T22:36:07.118Z,21.62
2017-10-02T22:38:36.588Z,26.50
2017-10-02T22:41:06.143Z,22.93
2017-10-02T22:43:35.615Z,22.53
2017-10-02T22:46:05.074Z,21.43
2017-10-02T22:48:34.541Z,20.50
2017-10-02T22:51:04.036Z,21.90
2017-10-02T22:53:41.626Z,21.43
2017-10-02T22:56:11.196Z,19.80
2017-10-02T22:58:40.668Z,19.93
2017-10-02T23:01:10.427Z,22.90
2017-10-02T23:03:40.217Z,18.60
2017-10-02T23:06:09.820Z,16.70
2017-10-02T23:08:39.564Z,20.60
2017-10-02T23:11:09.347Z,26.33
2017-10-02T23:13:39.448Z,30.45
2017-10-02T23:16:09.226Z,27.62
2017-10-02T23:18:38.984Z,27.92
2017-10-02T23:21:08.720Z,24.95
2017-10-02T23:23:38.195Z,24.80
2017-10-02T23:26:07.707Z,27.33
2017-10-02T23:28:37.151Z,29.33
2017-10-02T23:31:06.968Z,26.45
2017-10-02T23:33:36.734Z,33.88
2017-10-02T23:36:06.482Z,31.50
2017-10-02T23:38:36.250Z,30.45
2017-10-02T23:41:06.014Z,32.08
2017-10-02T23:43:35.760Z,33.28
2017-10-02T23:46:06.358Z,34.30
2017-10-02T23:48:36.116Z,34.85
2017-10-02T23:51:05.927Z,30.83
2017-10-02T23:53:35.779Z,31.05
2017-10-02T23:56:05.517Z,44.50
2017-10-02T23:58:35.290Z,36.67
